Bretteville, France

57.9°F / 14.4°C
Mostly Cloudy
Humidity: 70%
Dew Point: 48°F / 9°C
Wind: West at 13.6 mph / 21.9 km/h
Wind Gust: 23.7 mph / 38.1 km/h
Pressure: 29.89 in / 1012 hPa (Steady)
Visibility: 6.2 miles / 10.0 kilometers
Clouds: Mostly Cloudy (BKN) : 2900 ft / 883 m
Yesterday's Maximum: 60.8°F / 16.0°C
Yesterday's Minimum: 50.9°F / 10.5°C
UV: 4 out of 16
Sunrise:6:53 AM CEST
Sunset:9:15 PM CEST
Moon Rise:3:33 AM CEST
Moon Set:12:12 PM CEST
Moon Phase Waning Gibbous
NOAA Weather Radio
No local feed.
METAR LFRC 261130Z AUTO 25013KT 9999 BKN029 13/07 Q1012 TEMPO 26015G25KT 4000 SHRA BKN020TCU
As of: 1:43 PM CEST on April 26, 2019
Observed at: i50cherb5, Val De Saire, France

View Station's History

No Yes

Local Satellite

Current Satellite Forecast
Region Default Local
No Yes

View Full Screen WunderMap

Forecast

Current Satellite Forecast

Features

Weather Apps

WunderRadio

Weather Underground Apps
Check out our wide variety of mobile and setup applications.

Weather Underground Applications

Top of Page

© Copyright 2019
The Weather Company, LLC